sensor_id;sensor_type;location;lat;lon;timestamp;temperature;humidity
24152;DHT22;12311;50.866;4.332;2024-02-16T00:00:53;14.40;89.40
24152;DHT22;12311;50.866;4.332;2024-02-16T00:03:20;14.40;89.50
24152;DHT22;12311;50.866;4.332;2024-02-16T00:05:46;14.50;88.40
24152;DHT22;12311;50.866;4.332;2024-02-16T00:08:12;14.40;90.00
24152;DHT22;12311;50.866;4.332;2024-02-16T00:10:38;14.40;89.80
24152;DHT22;12311;50.866;4.332;2024-02-16T00:13:04;14.40;89.80
24152;DHT22;12311;50.866;4.332;2024-02-16T00:15:30;14.40;90.00
24152;DHT22;12311;50.866;4.332;2024-02-16T00:17:55;14.50;90.40
24152;DHT22;12311;50.866;4.332;2024-02-16T00:20:21;14.40;89.60
24152;DHT22;12311;50.866;4.332;2024-02-16T00:22:49;14.50;89.40
24152;DHT22;12311;50.866;4.332;2024-02-16T00:25:15;14.50;89.20
24152;DHT22;12311;50.866;4.332;2024-02-16T00:27:40;14.50;89.00
24152;DHT22;12311;50.866;4.332;2024-02-16T00:30:07;14.40;89.60
24152;DHT22;12311;50.866;4.332;2024-02-16T00:32:35;14.50;89.80
24152;DHT22;12311;50.866;4.332;2024-02-16T00:35:00;14.50;89.40
24152;DHT22;12311;50.866;4.332;2024-02-16T00:37:26;14.40;90.20
24152;DHT22;12311;50.866;4.332;2024-02-16T00:39:51;14.50;90.00
24152;DHT22;12311;50.866;4.332;2024-02-16T00:42:20;14.50;89.40
24152;DHT22;12311;50.866;4.332;2024-02-16T00:44:45;14.40;89.50
24152;DHT22;12311;50.866;4.332;2024-02-16T00:47:11;14.40;89.90
24152;DHT22;12311;50.866;4.332;2024-02-16T00:49:37;14.40;90.30
24152;DHT22;12311;50.866;4.332;2024-02-16T00:52:02;14.40;90.30
24152;DHT22;12311;50.866;4.332;2024-02-16T00:54:29;14.40;91.00
24152;DHT22;12311;50.866;4.332;2024-02-16T00:56:54;14.40;90.50
24152;DHT22;12311;50.866;4.332;2024-02-16T00:59:20;14.40;90.60
24152;DHT22;12311;50.866;4.332;2024-02-16T01:01:46;14.50;90.10
24152;DHT22;12311;50.866;4.332;2024-02-16T01:04:12;14.40;90.30
24152;DHT22;12311;50.866;4.332;2024-02-16T01:06:38;14.40;90.80
24152;DHT22;12311;50.866;4.332;2024-02-16T01:09:03;14.40;91.20
24152;DHT22;12311;50.866;4.332;2024-02-16T01:11:29;14.40;91.40
24152;DHT22;12311;50.866;4.332;2024-02-16T01:13:55;14.30;91.40
24152;DHT22;12311;50.866;4.332;2024-02-16T01:16:20;14.30;91.80
24152;DHT22;12311;50.866;4.332;2024-02-16T01:18:46;14.40;91.60
24152;DHT22;12311;50.866;4.332;2024-02-16T01:21:12;14.30;91.80
24152;DHT22;12311;50.866;4.332;2024-02-16T01:23:37;14.30;91.70
24152;DHT22;12311;50.866;4.332;2024-02-16T01:26:03;14.40;91.80
24152;DHT22;12311;50.866;4.332;2024-02-16T01:28:29;14.40;91.70
24152;DHT22;12311;50.866;4.332;2024-02-16T01:30:55;14.40;91.80
24152;DHT22;12311;50.866;4.332;2024-02-16T01:33:22;14.40;91.60
24152;DHT22;12311;50.866;4.332;2024-02-16T01:35:47;14.50;91.60
24152;DHT22;12311;50.866;4.332;2024-02-16T01:38:13;14.40;91.70
24152;DHT22;12311;50.866;4.332;2024-02-16T01:40:39;14.40;92.00
24152;DHT22;12311;50.866;4.332;2024-02-16T01:43:05;14.40;92.20
24152;DHT22;12311;50.866;4.332;2024-02-16T01:45:31;14.40;92.70
24152;DHT22;12311;50.866;4.332;2024-02-16T01:47:57;14.40;92.90
24152;DHT22;12311;50.866;4.332;2024-02-16T01:50:23;14.40;92.90
24152;DHT22;12311;50.866;4.332;2024-02-16T01:52:50;14.40;93.50
24152;DHT22;12311;50.866;4.332;2024-02-16T01:55:16;14.40;93.40
24152;DHT22;12311;50.866;4.332;2024-02-16T01:57:47;14.40;94.00
24152;DHT22;12311;50.866;4.332;2024-02-16T02:00:14;14.40;93.50
24152;DHT22;12311;50.866;4.332;2024-02-16T02:02:46;14.40;93.30
24152;DHT22;12311;50.866;4.332;2024-02-16T02:05:12;14.50;93.20
24152;DHT22;12311;50.866;4.332;2024-02-16T02:07:38;14.40;93.50
24152;DHT22;12311;50.866;4.332;2024-02-16T02:10:04;14.40;93.70
24152;DHT22;12311;50.866;4.332;2024-02-16T02:12:30;14.40;94.10
24152;DHT22;12311;50.866;4.332;2024-02-16T02:14:56;14.40;94.30
24152;DHT22;12311;50.866;4.332;2024-02-16T02:17:21;14.40;94.10
24152;DHT22;12311;50.866;4.332;2024-02-16T02:19:48;14.40;94.90
24152;DHT22;12311;50.866;4.332;2024-02-16T02:22:21;14.40;95.20
24152;DHT22;12311;50.866;4.332;2024-02-16T02:24:47;14.40;95.30
24152;DHT22;12311;50.866;4.332;2024-02-16T02:27:15;14.40;95.60
24152;DHT22;12311;50.866;4.332;2024-02-16T02:29:41;14.40;95.60
24152;DHT22;12311;50.866;4.332;2024-02-16T02:32:08;14.40;95.80
24152;DHT22;12311;50.866;4.332;2024-02-16T02:34:34;14.50;95.50
24152;DHT22;12311;50.866;4.332;2024-02-16T02:37:02;14.50;95.40
24152;DHT22;12311;50.866;4.332;2024-02-16T02:39:29;14.50;95.40
24152;DHT22;12311;50.866;4.332;2024-02-16T02:41:55;14.50;95.80
24152;DHT22;12311;50.866;4.332;2024-02-16T02:44:21;14.50;96.20
24152;DHT22;12311;50.866;4.332;2024-02-16T02:46:46;14.60;95.70
24152;DHT22;12311;50.866;4.332;2024-02-16T02:49:12;14.60;95.80
24152;DHT22;12311;50.866;4.332;2024-02-16T02:51:38;14.60;95.60
24152;DHT22;12311;50.866;4.332;2024-02-16T02:54:04;14.60;95.80
24152;DHT22;12311;50.866;4.332;2024-02-16T02:56:29;14.70;95.30
24152;DHT22;12311;50.866;4.332;2024-02-16T02:58:55;14.60;95.40
24152;DHT22;12311;50.866;4.332;2024-02-16T03:01:21;14.60;95.70
24152;DHT22;12311;50.866;4.332;2024-02-16T03:03:47;14.60;96.20
24152;DHT22;12311;50.866;4.332;2024-02-16T03:06:18;14.60;96.40
24152;DHT22;12311;50.866;4.332;2024-02-16T03:08:44;14.70;96.30
24152;DHT22;12311;50.866;4.332;2024-02-16T03:11:09;14.70;96.40
24152;DHT22;12311;50.866;4.332;2024-02-16T03:13:36;14.60;96.60
24152;DHT22;12311;50.866;4.332;2024-02-16T03:16:02;14.70;96.80
24152;DHT22;12311;50.866;4.332;2024-02-16T03:18:32;14.70;96.90
24152;DHT22;12311;50.866;4.332;2024-02-16T03:20:58;14.70;96.60
24152;DHT22;12311;50.866;4.332;2024-02-16T03:23:24;14.70;96.80
24152;DHT22;12311;50.866;4.332;2024-02-16T03:25:50;14.70;96.90
24152;DHT22;12311;50.866;4.332;2024-02-16T03:28:15;14.80;96.70
24152;DHT22;12311;50.866;4.332;2024-02-16T03:30:42;14.70;96.80
24152;DHT22;12311;50.866;4.332;2024-02-16T03:33:08;14.60;97.60
24152;DHT22;12311;50.866;4.332;2024-02-16T03:35:34;14.60;97.90
24152;DHT22;12311;50.866;4.332;2024-02-16T03:38:00;14.60;98.50
24152;DHT22;12311;50.866;4.332;2024-02-16T03:40:26;14.60;98.60
24152;DHT22;12311;50.866;4.332;2024-02-16T03:42:52;14.60;98.40
24152;DHT22;12311;50.866;4.332;2024-02-16T03:45:17;14.60;98.30
24152;DHT22;12311;50.866;4.332;2024-02-16T03:47:43;14.60;98.80
24152;DHT22;12311;50.866;4.332;2024-02-16T03:50:10;14.50;99.00
24152;DHT22;12311;50.866;4.332;2024-02-16T03:52:36;14.60;99.30
24152;DHT22;12311;50.866;4.332;2024-02-16T03:55:02;14.60;98.90
24152;DHT22;12311;50.866;4.332;2024-02-16T03:57:29;14.70;98.70
24152;DHT22;12311;50.866;4.332;2024-02-16T03:59:55;14.60;98.90
24152;DHT22;12311;50.866;4.332;2024-02-16T04:02:21;14.70;99.20
24152;DHT22;12311;50.866;4.332;2024-02-16T04:04:46;14.70;99.20
24152;DHT22;12311;50.866;4.332;2024-02-16T04:07:12;14.70;99.50
24152;DHT22;12311;50.866;4.332;2024-02-16T04:09:38;14.70;99.10
24152;DHT22;12311;50.866;4.332;2024-02-16T04:12:04;14.70;99.40
24152;DHT22;12311;50.866;4.332;2024-02-16T04:14:30;14.70;99.70
24152;DHT22;12311;50.866;4.332;2024-02-16T04:16:56;14.70;99.60
24152;DHT22;12311;50.866;4.332;2024-02-16T04:19:25;14.80;99.50
24152;DHT22;12311;50.866;4.332;2024-02-16T04:21:51;14.80;99.60
24152;DHT22;12311;50.866;4.332;2024-02-16T04:24:17;14.80;99.70
24152;DHT22;12311;50.866;4.332;2024-02-16T04:26:43;14.90;99.40
24152;DHT22;12311;50.866;4.332;2024-02-16T04:29:09;14.90;99.20
24152;DHT22;12311;50.866;4.332;2024-02-16T04:31:35;14.90;99.30
24152;DHT22;12311;50.866;4.332;2024-02-16T04:34:01;14.80;99.80
24152;DHT22;12311;50.866;4.332;2024-02-16T04:36:27;14.80;99.70
24152;DHT22;12311;50.866;4.332;2024-02-16T04:38:53;14.90;99.60
24152;DHT22;12311;50.866;4.332;2024-02-16T04:41:21;14.80;99.80
24152;DHT22;12311;50.866;4.332;2024-02-16T04:43:47;14.80;99.90
24152;DHT22;12311;50.866;4.332;2024-02-16T04:46:16;14.90;99.90
24152;DHT22;12311;50.866;4.332;2024-02-16T04:48:43;14.90;99.90
24152;DHT22;12311;50.866;4.332;2024-02-16T04:51:08;15.00;99.90
24152;DHT22;12311;50.866;4.332;2024-02-16T04:53:34;14.90;99.90
24152;DHT22;12311;50.866;4.332;2024-02-16T04:56:00;14.90;99.90
24152;DHT22;12311;50.866;4.332;2024-02-16T04:58:27;14.90;99.90
24152;DHT22;12311;50.866;4.332;2024-02-16T05:00:53;14.90;99.90
24152;DHT22;12311;50.866;4.332;2024-02-16T05:03:19;14.90;99.90
24152;DHT22;12311;50.866;4.332;2024-02-16T05:05:44;14.90;99.90
24152;DHT22;12311;50.866;4.332;2024-02-16T05:08:11;14.90;99.90
24152;DHT22;12311;50.866;4.332;2024-02-16T05:10:37;14.80;99.90
24152;DHT22;12311;50.866;4.332;2024-02-16T05:13:03;14.80;99.90
24152;DHT22;12311;50.866;4.332;2024-02-16T05:15:29;14.80;99.90
24152;DHT22;12311;50.866;4.332;2024-02-16T05:17:54;14.80;99.90
24152;DHT22;12311;50.866;4.332;2024-02-16T05:20:20;14.80;99.90
24152;DHT22;12311;50.866;4.332;2024-02-16T05:22:46;14.80;99.90
24152;DHT22;12311;50.866;4.332;2024-02-16T05:25:16;14.90;99.90
24152;DHT22;12311;50.866;4.332;2024-02-16T05:27:43;14.90;99.90
24152;DHT22;12311;50.866;4.332;2024-02-16T05:30:10;14.90;99.90
24152;DHT22;12311;50.866;4.332;2024-02-16T05:32:38;14.90;99.90
24152;DHT22;12311;50.866;4.332;2024-02-16T05:35:05;14.80;99.90
24152;DHT22;12311;50.866;4.332;2024-02-16T05:37:47;14.80;99.90
24152;DHT22;12311;50.866;4.332;2024-02-16T05:40:15;14.80;99.90
24152;DHT22;12311;50.866;4.332;2024-02-16T05:42:50;14.80;99.90
24152;DHT22;12311;50.866;4.332;2024-02-16T05:45:17;14.80;99.90
24152;DHT22;12311;50.866;4.332;2024-02-16T05:47:44;14.90;99.90
24152;DHT22;12311;50.866;4.332;2024-02-16T05:50:11;14.80;99.90
24152;DHT22;12311;50.866;4.332;2024-02-16T05:52:38;14.80;99.90
24152;DHT22;12311;50.866;4.332;2024-02-16T05:55:05;14.80;99.90
24152;DHT22;12311;50.866;4.332;2024-02-16T05:57:31;14.70;99.90
24152;DHT22;12311;50.866;4.332;2024-02-16T05:59:56;14.70;99.90
24152;DHT22;12311;50.866;4.332;2024-02-16T06:02:23;14.70;99.90
24152;DHT22;12311;50.866;4.332;2024-02-16T06:04:51;14.70;99.90
24152;DHT22;12311;50.866;4.332;2024-02-16T06:07:17;14.60;99.90
24152;DHT22;12311;50.866;4.332;2024-02-16T06:09:42;14.60;99.90
24152;DHT22;12311;50.866;4.332;2024-02-16T06:12:08;14.60;99.90
24152;DHT22;12311;50.866;4.332;2024-02-16T06:14:35;14.60;99.90
24152;DHT22;12311;50.866;4.332;2024-02-16T06:17:02;14.70;99.90
24152;DHT22;12311;50.866;4.332;2024-02-16T06:19:28;14.80;99.90
24152;DHT22;12311;50.866;4.332;2024-02-16T06:21:54;14.80;99.90
24152;DHT22;12311;50.866;4.332;2024-02-16T06:24:23;14.70;99.90
24152;DHT22;12311;50.866;4.332;2024-02-16T06:26:50;14.60;99.90
24152;DHT22;12311;50.866;4.332;2024-02-16T06:29:19;14.50;99.90
24152;DHT22;12311;50.866;4.332;2024-02-16T06:31:48;14.50;99.90
24152;DHT22;12311;50.866;4.332;2024-02-16T06:34:14;14.40;99.90
24152;DHT22;12311;50.866;4.332;2024-02-16T06:36:43;14.30;99.90
24152;DHT22;12311;50.866;4.332;2024-02-16T06:39:09;14.30;99.90
24152;DHT22;12311;50.866;4.332;2024-02-16T06:41:36;14.30;99.90
24152;DHT22;12311;50.866;4.332;2024-02-16T06:44:03;14.20;99.90
24152;DHT22;12311;50.866;4.332;2024-02-16T06:46:29;14.20;99.90
24152;DHT22;12311;50.866;4.332;2024-02-16T06:48:55;14.30;99.90
24152;DHT22;12311;50.866;4.332;2024-02-16T06:51:24;14.30;99.90
24152;DHT22;12311;50.866;4.332;2024-02-16T06:53:50;14.20;99.90
24152;DHT22;12311;50.866;4.332;2024-02-16T06:56:16;14.20;99.90
24152;DHT22;12311;50.866;4.332;2024-02-16T06:58:44;14.20;99.90
24152;DHT22;12311;50.866;4.332;2024-02-16T07:01:09;14.20;99.90
24152;DHT22;12311;50.866;4.332;2024-02-16T07:03:35;14.00;99.90
24152;DHT22;12311;50.866;4.332;2024-02-16T07:06:03;13.90;99.90
24152;DHT22;12311;50.866;4.332;2024-02-16T07:08:29;13.80;99.90
24152;DHT22;12311;50.866;4.332;2024-02-16T07:10:54;13.80;99.90
24152;DHT22;12311;50.866;4.332;2024-02-16T07:13:22;13.80;99.90
24152;DHT22;12311;50.866;4.332;2024-02-16T07:15:47;13.80;99.90
24152;DHT22;12311;50.866;4.332;2024-02-16T07:18:14;13.80;99.90
24152;DHT22;12311;50.866;4.332;2024-02-16T07:20:40;13.80;99.90
24152;DHT22;12311;50.866;4.332;2024-02-16T07:23:06;13.80;99.90
24152;DHT22;12311;50.866;4.332;2024-02-16T07:25:32;13.70;99.90
24152;DHT22;12311;50.866;4.332;2024-02-16T07:27:58;13.70;99.90
24152;DHT22;12311;50.866;4.332;2024-02-16T07:30:23;13.70;99.90
24152;DHT22;12311;50.866;4.332;2024-02-16T07:32:50;13.70;99.90
24152;DHT22;12311;50.866;4.332;2024-02-16T07:35:16;13.70;99.90
24152;DHT22;12311;50.866;4.332;2024-02-16T07:37:42;13.60;99.90
24152;DHT22;12311;50.866;4.332;2024-02-16T07:40:09;13.60;99.90
24152;DHT22;12311;50.866;4.332;2024-02-16T07:42:39;13.70;99.90
24152;DHT22;12311;50.866;4.332;2024-02-16T07:45:05;13.70;99.90
24152;DHT22;12311;50.866;4.332;2024-02-16T07:47:32;13.70;99.90
24152;DHT22;12311;50.866;4.332;2024-02-16T07:49:58;13.70;99.90
24152;DHT22;12311;50.866;4.332;2024-02-16T07:52:23;13.80;99.90
24152;DHT22;12311;50.866;4.332;2024-02-16T07:54:49;13.80;99.90
24152;DHT22;12311;50.866;4.332;2024-02-16T07:57:17;13.80;99.90
24152;DHT22;12311;50.866;4.332;2024-02-16T07:59:43;13.90;99.90
24152;DHT22;12311;50.866;4.332;2024-02-16T08:02:09;13.90;99.90
24152;DHT22;12311;50.866;4.332;2024-02-16T08:04:35;14.00;99.90
24152;DHT22;12311;50.866;4.332;2024-02-16T08:07:01;14.00;99.90
24152;DHT22;12311;50.866;4.332;2024-02-16T08:09:27;14.00;99.90
24152;DHT22;12311;50.866;4.332;2024-02-16T08:11:53;14.00;99.90
24152;DHT22;12311;50.866;4.332;2024-02-16T08:14:18;14.10;99.90
24152;DHT22;12311;50.866;4.332;2024-02-16T08:16:44;14.20;99.90
24152;DHT22;12311;50.866;4.332;2024-02-16T08:19:10;14.30;99.90
24152;DHT22;12311;50.866;4.332;2024-02-16T08:21:36;14.30;99.90
24152;DHT22;12311;50.866;4.332;2024-02-16T08:24:01;14.40;99.90
24152;DHT22;12311;50.866;4.332;2024-02-16T08:26:28;14.50;99.90
24152;DHT22;12311;50.866;4.332;2024-02-16T08:28:54;14.60;99.90
24152;DHT22;12311;50.866;4.332;2024-02-16T08:31:19;14.50;99.90
24152;DHT22;12311;50.866;4.332;2024-02-16T08:33:45;14.50;99.90
24152;DHT22;12311;50.866;4.332;2024-02-16T08:36:12;14.40;99.90
24152;DHT22;12311;50.866;4.332;2024-02-16T08:38:38;14.30;99.90
24152;DHT22;12311;50.866;4.332;2024-02-16T08:41:03;14.00;99.90
24152;DHT22;12311;50.866;4.332;2024-02-16T08:43:29;13.70;99.90
24152;DHT22;12311;50.866;4.332;2024-02-16T08:45:55;13.60;99.90
24152;DHT22;12311;50.866;4.332;2024-02-16T08:48:23;13.60;99.90
24152;DHT22;12311;50.866;4.332;2024-02-16T08:50:49;13.50;99.90
24152;DHT22;12311;50.866;4.332;2024-02-16T08:53:16;13.50;99.90
24152;DHT22;12311;50.866;4.332;2024-02-16T08:55:42;13.40;99.90
24152;DHT22;12311;50.866;4.332;2024-02-16T08:58:08;13.50;99.90
24152;DHT22;12311;50.866;4.332;2024-02-16T09:00:34;13.60;99.90
24152;DHT22;12311;50.866;4.332;2024-02-16T09:03:00;13.50;99.90
24152;DHT22;12311;50.866;4.332;2024-02-16T09:05:28;13.60;99.90
24152;DHT22;12311;50.866;4.332;2024-02-16T09:07:53;13.60;99.90
24152;DHT22;12311;50.866;4.332;2024-02-16T09:10:19;13.60;99.90
24152;DHT22;12311;50.866;4.332;2024-02-16T09:12:45;13.60;99.90
24152;DHT22;12311;50.866;4.332;2024-02-16T09:15:11;13.60;99.90
24152;DHT22;12311;50.866;4.332;2024-02-16T09:17:37;13.60;99.90
24152;DHT22;12311;50.866;4.332;2024-02-16T09:20:04;13.70;99.90
24152;DHT22;12311;50.866;4.332;2024-02-16T09:22:30;13.60;99.90
24152;DHT22;12311;50.866;4.332;2024-02-16T09:24:55;13.60;99.90
24152;DHT22;12311;50.866;4.332;2024-02-16T09:27:25;13.60;99.90
24152;DHT22;12311;50.866;4.332;2024-02-16T09:29:51;13.50;99.90
24152;DHT22;12311;50.866;4.332;2024-02-16T09:32:17;13.50;99.90
24152;DHT22;12311;50.866;4.332;2024-02-16T09:34:43;13.50;99.90
24152;DHT22;12311;50.866;4.332;2024-02-16T09:37:09;13.50;99.90
24152;DHT22;12311;50.866;4.332;2024-02-16T09:39:34;13.40;99.90
24152;DHT22;12311;50.866;4.332;2024-02-16T09:42:00;13.50;99.90
24152;DHT22;12311;50.866;4.332;2024-02-16T09:44:26;13.50;99.90
24152;DHT22;12311;50.866;4.332;2024-02-16T09:46:54;13.60;99.90
24152;DHT22;12311;50.866;4.332;2024-02-16T09:49:20;13.60;99.90
24152;DHT22;12311;50.866;4.332;2024-02-16T09:51:46;13.60;99.90
24152;DHT22;12311;50.866;4.332;2024-02-16T09:54:12;13.50;99.90
24152;DHT22;12311;50.866;4.332;2024-02-16T09:56:38;13.60;99.90
24152;DHT22;12311;50.866;4.332;2024-02-16T09:59:04;13.60;99.90
24152;DHT22;12311;50.866;4.332;2024-02-16T10:01:29;13.60;99.90
24152;DHT22;12311;50.866;4.332;2024-02-16T10:04:05;13.60;99.90
24152;DHT22;12311;50.866;4.332;2024-02-16T10:06:32;13.60;99.90
24152;DHT22;12311;50.866;4.332;2024-02-16T10:08:57;13.60;99.90
24152;DHT22;12311;50.866;4.332;2024-02-16T10:11:26;13.60;99.90
24152;DHT22;12311;50.866;4.332;2024-02-16T10:13:59;13.70;99.90
24152;DHT22;12311;50.866;4.332;2024-02-16T10:16:26;13.70;99.90
24152;DHT22;12311;50.866;4.332;2024-02-16T10:18:55;13.70;99.90
24152;DHT22;12311;50.866;4.332;2024-02-16T10:21:28;13.80;99.90
24152;DHT22;12311;50.866;4.332;2024-02-16T10:26:31;13.80;99.90
24152;DHT22;12311;50.866;4.332;2024-02-16T10:28:57;13.80;99.90
24152;DHT22;12311;50.866;4.332;2024-02-16T10:31:26;13.80;99.90
24152;DHT22;12311;50.866;4.332;2024-02-16T10:33:57;13.80;99.90
24152;DHT22;12311;50.866;4.332;2024-02-16T10:36:25;13.90;99.90
24152;DHT22;12311;50.866;4.332;2024-02-16T10:38:55;13.90;99.90
24152;DHT22;12311;50.866;4.332;2024-02-16T10:41:27;13.80;99.90
24152;DHT22;12311;50.866;4.332;2024-02-16T10:43:56;13.80;99.90
24152;DHT22;12311;50.866;4.332;2024-02-16T10:46:23;13.70;99.90
24152;DHT22;12311;50.866;4.332;2024-02-16T10:48:49;13.70;99.90
24152;DHT22;12311;50.866;4.332;2024-02-16T10:51:17;13.80;99.90
24152;DHT22;12311;50.866;4.332;2024-02-16T10:53:46;13.80;99.90
24152;DHT22;12311;50.866;4.332;2024-02-16T10:56:13;13.80;99.90
24152;DHT22;12311;50.866;4.332;2024-02-16T10:58:39;13.80;99.90
24152;DHT22;12311;50.866;4.332;2024-02-16T11:01:15;13.90;99.90
24152;DHT22;12311;50.866;4.332;2024-02-16T11:03:41;13.80;99.90
24152;DHT22;12311;50.866;4.332;2024-02-16T11:06:16;13.70;99.90
24152;DHT22;12311;50.866;4.332;2024-02-16T11:08:42;13.70;99.90
24152;DHT22;12311;50.866;4.332;2024-02-16T11:11:08;13.60;99.90
24152;DHT22;12311;50.866;4.332;2024-02-16T11:13:37;13.60;99.90
24152;DHT22;12311;50.866;4.332;2024-02-16T11:16:22;13.60;99.90
24152;DHT22;12311;50.866;4.332;2024-02-16T11:18:48;13.60;99.90
24152;DHT22;12311;50.866;4.332;2024-02-16T11:21:17;13.50;99.90
24152;DHT22;12311;50.866;4.332;2024-02-16T11:23:44;13.60;99.90
24152;DHT22;12311;50.866;4.332;2024-02-16T11:26:11;13.50;99.90
24152;DHT22;12311;50.866;4.332;2024-02-16T11:28:39;13.50;99.90
24152;DHT22;12311;50.866;4.332;2024-02-16T11:31:05;13.50;99.90
24152;DHT22;12311;50.866;4.332;2024-02-16T11:33:32;13.60;99.90
24152;DHT22;12311;50.866;4.332;2024-02-16T11:36:00;13.60;99.90
24152;DHT22;12311;50.866;4.332;2024-02-16T11:38:27;13.60;99.90
24152;DHT22;12311;50.866;4.332;2024-02-16T11:41:03;13.60;99.90
24152;DHT22;12311;50.866;4.332;2024-02-16T11:43:30;13.60;99.90
24152;DHT22;12311;50.866;4.332;2024-02-16T11:46:10;13.70;99.90
24152;DHT22;12311;50.866;4.332;2024-02-16T11:48:35;13.60;99.90
24152;DHT22;12311;50.866;4.332;2024-02-16T11:51:03;13.60;99.90
24152;DHT22;12311;50.866;4.332;2024-02-16T11:53:29;13.60;99.90
24152;DHT22;12311;50.866;4.332;2024-02-16T11:55:55;13.60;99.90
24152;DHT22;12311;50.866;4.332;2024-02-16T11:58:21;13.60;99.90
24152;DHT22;12311;50.866;4.332;2024-02-16T12:00:48;13.70;99.90
24152;DHT22;12311;50.866;4.332;2024-02-16T12:03:25;13.70;99.90
24152;DHT22;12311;50.866;4.332;2024-02-16T12:05:57;13.60;99.90
24152;DHT22;12311;50.866;4.332;2024-02-16T12:08:23;13.60;99.90
24152;DHT22;12311;50.866;4.332;2024-02-16T12:10:50;13.60;99.90
24152;DHT22;12311;50.866;4.332;2024-02-16T12:13:17;13.50;99.90
24152;DHT22;12311;50.866;4.332;2024-02-16T12:15:45;13.40;99.90
24152;DHT22;12311;50.866;4.332;2024-02-16T12:18:18;13.40;99.90
24152;DHT22;12311;50.866;4.332;2024-02-16T12:20:45;13.40;99.90
24152;DHT22;12311;50.866;4.332;2024-02-16T12:23:21;13.30;99.90
24152;DHT22;12311;50.866;4.332;2024-02-16T12:25:48;13.30;99.90
24152;DHT22;12311;50.866;4.332;2024-02-16T12:28:14;13.30;99.90
24152;DHT22;12311;50.866;4.332;2024-02-16T12:30:39;13.30;99.90
24152;DHT22;12311;50.866;4.332;2024-02-16T12:33:05;13.20;99.90
24152;DHT22;12311;50.866;4.332;2024-02-16T12:35:32;13.20;99.90
24152;DHT22;12311;50.866;4.332;2024-02-16T12:37:57;13.20;99.90
24152;DHT22;12311;50.866;4.332;2024-02-16T12:40:23;13.30;99.90
24152;DHT22;12311;50.866;4.332;2024-02-16T12:42:49;13.30;99.90
24152;DHT22;12311;50.866;4.332;2024-02-16T12:45:14;13.20;99.90
24152;DHT22;12311;50.866;4.332;2024-02-16T12:47:41;13.20;99.90
24152;DHT22;12311;50.866;4.332;2024-02-16T12:50:07;13.20;99.90
24152;DHT22;12311;50.866;4.332;2024-02-16T12:52:33;13.20;99.90
24152;DHT22;12311;50.866;4.332;2024-02-16T12:55:01;13.20;99.90
24152;DHT22;12311;50.866;4.332;2024-02-16T12:57:26;13.20;99.90
24152;DHT22;12311;50.866;4.332;2024-02-16T12:59:54;13.20;99.90
24152;DHT22;12311;50.866;4.332;2024-02-16T13:02:20;13.20;99.90
24152;DHT22;12311;50.866;4.332;2024-02-16T13:04:45;13.10;99.90
24152;DHT22;12311;50.866;4.332;2024-02-16T13:07:11;13.10;99.90
24152;DHT22;12311;50.866;4.332;2024-02-16T13:09:37;13.10;99.90
24152;DHT22;12311;50.866;4.332;2024-02-16T13:12:02;13.10;99.90
24152;DHT22;12311;50.866;4.332;2024-02-16T13:14:28;13.10;99.90
24152;DHT22;12311;50.866;4.332;2024-02-16T13:16:54;13.10;99.90
24152;DHT22;12311;50.866;4.332;2024-02-16T13:19:19;13.10;99.90
24152;DHT22;12311;50.866;4.332;2024-02-16T13:21:45;13.20;99.90
24152;DHT22;12311;50.866;4.332;2024-02-16T13:24:11;13.20;99.90
24152;DHT22;12311;50.866;4.332;2024-02-16T13:26:36;13.20;99.90
24152;DHT22;12311;50.866;4.332;2024-02-16T13:29:02;13.20;99.90
24152;DHT22;12311;50.866;4.332;2024-02-16T13:31:28;13.30;99.90
24152;DHT22;12311;50.866;4.332;2024-02-16T13:33:54;13.20;99.90
24152;DHT22;12311;50.866;4.332;2024-02-16T13:36:21;13.50;99.90
24152;DHT22;12311;50.866;4.332;2024-02-16T13:38:46;13.50;99.90
24152;DHT22;12311;50.866;4.332;2024-02-16T13:41:12;13.40;99.90
24152;DHT22;12311;50.866;4.332;2024-02-16T13:43:38;13.50;99.90
24152;DHT22;12311;50.866;4.332;2024-02-16T13:46:04;13.60;99.90
24152;DHT22;12311;50.866;4.332;2024-02-16T13:48:30;13.60;99.90
24152;DHT22;12311;50.866;4.332;2024-02-16T13:50:56;13.70;99.90
24152;DHT22;12311;50.866;4.332;2024-02-16T13:53:22;13.90;99.90
24152;DHT22;12311;50.866;4.332;2024-02-16T13:55:50;14.00;99.90
24152;DHT22;12311;50.866;4.332;2024-02-16T13:58:16;14.20;99.90
24152;DHT22;12311;50.866;4.332;2024-02-16T14:00:42;14.20;99.90
24152;DHT22;12311;50.866;4.332;2024-02-16T14:03:10;14.40;99.90
24152;DHT22;12311;50.866;4.332;2024-02-16T14:05:39;14.40;99.90
24152;DHT22;12311;50.866;4.332;2024-02-16T14:08:06;14.30;99.90
24152;DHT22;12311;50.866;4.332;2024-02-16T14:10:32;14.40;99.90
24152;DHT22;12311;50.866;4.332;2024-02-16T14:12:58;14.50;99.90
24152;DHT22;12311;50.866;4.332;2024-02-16T14:15:24;14.40;99.90
24152;DHT22;12311;50.866;4.332;2024-02-16T14:17:50;14.40;99.90
24152;DHT22;12311;50.866;4.332;2024-02-16T14:20:16;14.30;99.90
24152;DHT22;12311;50.866;4.332;2024-02-16T14:22:41;14.30;99.90
24152;DHT22;12311;50.866;4.332;2024-02-16T14:25:07;14.30;99.90
24152;DHT22;12311;50.866;4.332;2024-02-16T14:27:36;14.40;99.90
24152;DHT22;12311;50.866;4.332;2024-02-16T14:30:04;14.40;99.90
24152;DHT22;12311;50.866;4.332;2024-02-16T14:32:29;14.50;99.90
24152;DHT22;12311;50.866;4.332;2024-02-16T14:34:55;14.60;99.90
24152;DHT22;12311;50.866;4.332;2024-02-16T14:37:21;14.70;99.90
24152;DHT22;12311;50.866;4.332;2024-02-16T14:39:46;14.60;99.90
24152;DHT22;12311;50.866;4.332;2024-02-16T14:42:13;14.60;99.90
24152;DHT22;12311;50.866;4.332;2024-02-16T14:44:39;14.70;99.90
24152;DHT22;12311;50.866;4.332;2024-02-16T14:47:05;14.60;99.90
24152;DHT22;12311;50.866;4.332;2024-02-16T14:49:31;14.50;99.90
24152;DHT22;12311;50.866;4.332;2024-02-16T14:51:57;14.70;99.90
24152;DHT22;12311;50.866;4.332;2024-02-16T14:54:23;14.80;99.90
24152;DHT22;12311;50.866;4.332;2024-02-16T14:56:52;14.80;99.90
24152;DHT22;12311;50.866;4.332;2024-02-16T14:59:21;14.80;99.90
24152;DHT22;12311;50.866;4.332;2024-02-16T15:01:46;15.00;99.90
24152;DHT22;12311;50.866;4.332;2024-02-16T15:04:12;15.10;99.90
24152;DHT22;12311;50.866;4.332;2024-02-16T15:06:38;15.10;99.90
24152;DHT22;12311;50.866;4.332;2024-02-16T15:09:04;15.00;99.90
24152;DHT22;12311;50.866;4.332;2024-02-16T15:11:30;14.90;99.90
24152;DHT22;12311;50.866;4.332;2024-02-16T15:13:55;14.70;99.90
24152;DHT22;12311;50.866;4.332;2024-02-16T15:16:21;14.70;99.90
24152;DHT22;12311;50.866;4.332;2024-02-16T15:18:47;14.60;99.90
24152;DHT22;12311;50.866;4.332;2024-02-16T15:21:13;14.40;99.90
24152;DHT22;12311;50.866;4.332;2024-02-16T15:23:38;14.40;99.90
24152;DHT22;12311;50.866;4.332;2024-02-16T15:26:04;14.30;99.90
24152;DHT22;12311;50.866;4.332;2024-02-16T15:28:33;14.40;99.90